Time;durP1;ratioP1;P1;durP2;ratioP2;P2;SDS_P1;SDS_P2;PMS_P1;PMS_P2;Temp;Humidity;BMP_temperature;BMP_pressure;BME280_temperature;BME280_humidity;BME280_pressure;Samples;Min_cycle;Max_cycle;Signal;HPM_P1;HPM_P2
2022/08/29 00:01:31;;;;;;;3.43;1.93;;;20.00;63.90;;;;;;5060959;28;20255;-70
2022/08/29 00:03:57;;;;;;;2.00;1.50;;;19.90;63.70;;;;;;5068010;28;20446;-70
2022/08/29 00:06:23;;;;;;;3.03;1.90;;;19.90;64.00;;;;;;5070913;28;20458;-71
2022/08/29 00:08:49;;;;;;;4.23;1.87;;;19.90;64.00;;;;;;5063470;28;20965;-69
2022/08/29 00:11:15;;;;;;;5.30;2.27;;;19.90;64.80;;;;;;5071405;27;20466;-70
2022/08/29 00:13:41;;;;;;;1.50;1.23;;;19.90;64.00;;;;;;5081533;27;20243;-69
2022/08/29 00:16:07;;;;;;;2.20;2.00;;;19.90;64.10;;;;;;5062777;28;20219;-69
2022/08/29 00:18:34;;;;;;;3.37;2.00;;;19.90;64.10;;;;;;5065039;28;20334;-70
2022/08/29 00:21:00;;;;;;;2.27;1.87;;;19.90;64.10;;;;;;5069098;28;20465;-69
2022/08/29 00:23:26;;;;;;;1.97;1.60;;;19.80;64.00;;;;;;5061155;28;20453;-69
2022/08/29 00:25:52;;;;;;;6.17;4.60;;;19.70;64.20;;;;;;5064349;28;20963;-71
2022/08/29 00:28:18;;;;;;;2.70;1.53;;;19.70;64.10;;;;;;5086018;27;20682;-70
2022/08/29 00:30:44;;;;;;;5.07;2.27;;;19.60;64.50;;;;;;5051225;28;20238;-70
2022/08/29 00:33:10;;;;;;;2.73;1.60;;;19.60;64.40;;;;;;5069577;28;20240;-69
2022/08/29 00:35:38;;;;;;;4.40;2.07;;;19.50;64.60;;;;;;5066423;27;20481;-69
2022/08/29 00:38:06;;;;;;;1.70;1.50;;;19.40;64.70;;;;;;5070360;28;20219;-68
2022/08/29 00:40:36;;;;;;;3.03;1.57;;;19.40;64.90;;;;;;5063775;28;20446;-70
2022/08/29 00:43:02;;;;;;;2.10;1.90;;;19.40;64.80;;;;;;5062537;28;20459;-69
2022/08/29 00:45:28;;;;;;;5.63;1.90;;;19.40;65.00;;;;;;5064121;28;20458;-69
2022/08/29 00:47:58;;;;;;;3.20;2.10;;;19.40;65.10;;;;;;5067060;28;20460;-69
2022/08/29 00:50:26;;;;;;;3.33;1.70;;;19.40;65.30;;;;;;5088259;28;20210;-69
2022/08/29 00:52:56;;;;;;;1.87;1.37;;;19.40;65.00;;;;;;5057876;28;20453;-69
2022/08/29 00:55:24;;;;;;;2.37;2.13;;;19.40;65.00;;;;;;5042127;28;20479;-69
2022/08/29 00:57:56;;;;;;;2.00;1.67;;;19.40;64.90;;;;;;5066462;27;20453;-68
2022/08/29 01:00:23;;;;;;;2.70;1.53;;;19.40;65.00;;;;;;5068022;28;20557;-69
2022/08/29 01:02:50;;;;;;;1.67;1.57;;;19.30;65.20;;;;;;5064024;28;20519;-69
2022/08/29 01:05:17;;;;;;;2.20;1.97;;;19.30;65.20;;;;;;5064595;28;20511;-69
2022/08/29 01:07:43;;;;;;;4.57;1.83;;;19.30;65.20;;;;;;5062601;28;20469;-68
2022/08/29 01:10:10;;;;;;;1.50;1.40;;;19.40;65.00;;;;;;5073972;28;20461;-69
2022/08/29 01:12:55;;;;;;;2.10;1.80;;;19.50;64.80;;;;;;5066578;28;20750;-69
2022/08/29 01:15:21;;;;;;;2.03;1.50;;;19.50;64.50;;;;;;5065597;28;20546;-68
2022/08/29 01:17:48;;;;;;;2.40;1.77;;;19.50;64.50;;;;;;5064341;28;20698;-69
2022/08/29 01:20:13;;;;;;;2.10;1.47;;;19.60;64.70;;;;;;5067519;28;20288;-69
2022/08/29 01:22:46;;;;;;;3.80;1.60;;;19.60;64.70;;;;;;5061382;28;20481;-69
2022/08/29 01:25:16;;;;;;;3.27;1.70;;;19.60;64.40;;;;;;5061848;28;20586;-69
2022/08/29 01:27:46;;;;;;;1.90;1.70;;;19.60;64.50;;;;;;5082242;27;20473;-69
2022/08/29 01:30:13;;;;;;;1.63;1.33;;;19.60;64.60;;;;;;5046296;28;20973;-67
2022/08/29 01:32:40;;;;;;;2.00;1.80;;;19.60;64.50;;;;;;5044892;28;20886;-69
2022/08/29 01:35:07;;;;;;;1.80;1.60;;;19.50;64.00;;;;;;5072966;28;20465;-68
2022/08/29 01:37:36;;;;;;;1.97;1.50;;;19.50;63.90;;;;;;5068399;27;20457;-70
2022/08/29 01:40:03;;;;;;;2.43;2.23;;;19.50;64.00;;;;;;5069159;28;20465;-69
2022/08/29 01:42:29;;;;;;;3.60;1.87;;;19.50;64.00;;;;;;5045311;28;20561;-69
2022/08/29 01:44:57;;;;;;;1.57;1.47;;;19.50;64.00;;;;;;5066060;28;20893;-69
2022/08/29 01:47:26;;;;;;;4.40;1.90;;;19.50;64.10;;;;;;5065099;28;20237;-69
2022/08/29 01:49:52;;;;;;;2.30;1.33;;;19.40;64.10;;;;;;5063324;28;20470;-69
2022/08/29 01:52:18;;;;;;;1.43;1.33;;;19.40;64.00;;;;;;5063931;28;20473;-70
2022/08/29 01:54:45;;;;;;;2.90;1.70;;;19.40;64.10;;;;;;5064990;27;20519;-68
2022/08/29 01:57:12;;;;;;;2.30;1.50;;;19.40;64.20;;;;;;5058646;28;20249;-68
2022/08/29 01:59:38;;;;;;;2.90;1.90;;;19.40;64.20;;;;;;5063484;28;20454;-70
2022/08/29 02:02:20;;;;;;;2.40;1.60;;;19.40;64.20;;;;;;5061560;28;20468;-70
2022/08/29 02:04:47;;;;;;;1.80;1.50;;;19.40;64.10;;;;;;5061844;28;20462;-69
2022/08/29 02:07:16;;;;;;;2.10;1.70;;;19.40;64.10;;;;;;5053289;28;20469;-69
2022/08/29 02:09:42;;;;;;;3.83;1.90;;;19.40;64.30;;;;;;5060317;27;20465;-69
2022/08/29 02:12:08;;;;;;;2.10;1.90;;;19.40;64.10;;;;;;5047687;28;20481;-69
2022/08/29 02:14:35;;;;;;;1.43;1.20;;;19.40;64.10;;;;;;5063637;28;20493;-69
2022/08/29 02:17:05;;;;;;;4.27;2.07;;;19.40;64.20;;;;;;5069665;28;20218;-69
2022/08/29 02:19:32;;;;;;;3.20;1.70;;;19.30;64.00;;;;;;5067429;27;20497;-68
2022/08/29 02:21:59;;;;;;;5.80;1.97;;;19.30;64.10;;;;;;5054856;28;20471;-70
2022/08/29 02:24:24;;;;;;;1.70;1.60;;;19.30;64.00;;;;;;5064355;28;20988;-68
2022/08/29 02:26:52;;;;;;;2.07;1.60;;;19.30;64.00;;;;;;5058649;28;20466;-69
2022/08/29 02:29:17;;;;;;;2.60;1.70;;;19.30;64.00;;;;;;5063087;28;20216;-69
2022/08/29 02:31:43;;;;;;;5.23;2.17;;;19.30;64.00;;;;;;5062866;27;20453;-68
2022/08/29 02:34:09;;;;;;;2.80;1.33;;;19.20;63.90;;;;;;5047758;28;20230;-69
2022/08/29 02:36:35;;;;;;;1.70;1.60;;;19.20;63.90;;;;;;5049325;28;20606;-70
2022/08/29 02:39:02;;;;;;;4.57;1.53;;;19.20;63.90;;;;;;5058900;28;20473;-68
2022/08/29 02:41:28;;;;;;;2.90;1.83;;;19.20;63.90;;;;;;5060638;27;20483;-69
2022/08/29 02:43:54;;;;;;;3.93;1.57;;;19.20;63.90;;;;;;5060383;28;21188;-70
2022/08/29 02:46:20;;;;;;;2.93;1.63;;;19.20;64.10;;;;;;5061476;28;20594;-69
2022/08/29 02:48:46;;;;;;;2.23;1.60;;;19.10;63.80;;;;;;5064974;27;20211;-70
2022/08/29 02:51:23;;;;;;;1.90;1.60;;;19.10;63.90;;;;;;5061994;28;20218;-69
2022/08/29 02:53:49;;;;;;;3.10;1.80;;;19.10;63.90;;;;;;5062556;28;20453;-70
2022/08/29 02:56:15;;;;;;;4.83;1.80;;;19.10;63.90;;;;;;5064655;28;21038;-70
2022/08/29 02:58:42;;;;;;;2.30;1.53;;;19.00;64.10;;;;;;5060389;28;20549;-68
2022/08/29 03:01:08;;;;;;;2.60;1.50;;;19.00;64.00;;;;;;5064366;28;20568;-68
2022/08/29 03:03:35;;;;;;;2.80;1.60;;;19.00;64.00;;;;;;5057321;28;20560;-70
2022/08/29 03:06:01;;;;;;;3.47;1.50;;;19.00;64.00;;;;;;5064794;28;20462;-66
2022/08/29 03:08:27;;;;;;;1.47;1.30;;;18.90;64.00;;;;;;5059896;28;20477;-69
2022/08/29 03:10:52;;;;;;;2.20;1.60;;;18.90;63.90;;;;;;5069259;28;20979;-70
2022/08/29 03:13:19;;;;;;;3.00;1.67;;;18.90;64.00;;;;;;5083298;28;20215;-70
2022/08/29 03:15:44;;;;;;;2.63;1.77;;;18.90;64.20;;;;;;5069656;28;20215;-70
2022/08/29 03:18:10;;;;;;;2.83;1.60;;;18.80;64.10;;;;;;5068881;28;20510;-70
2022/08/29 03:20:37;;;;;;;4.00;1.40;;;18.80;64.10;;;;;;5065123;28;20216;-70
2022/08/29 03:23:04;;;;;;;2.80;1.53;;;18.80;64.00;;;;;;5034807;28;20672;-69
2022/08/29 03:25:30;;;;;;;1.80;1.50;;;18.80;63.90;;;;;;5074390;27;20483;-70
2022/08/29 03:27:58;;;;;;;2.40;1.87;;;18.80;64.10;;;;;;5071105;28;20514;-69
2022/08/29 03:30:25;;;;;;;4.20;1.60;;;18.70;64.10;;;;;;5064756;28;20465;-69
2022/08/29 03:32:51;;;;;;;1.70;1.60;;;18.70;64.20;;;;;;5063573;28;20469;-70
2022/08/29 03:35:18;;;;;;;3.40;2.23;;;18.70;64.40;;;;;;5061714;28;20469;-69
2022/08/29 03:37:44;;;;;;;1.60;1.47;;;18.70;64.40;;;;;;5057878;28;20465;-69
2022/08/29 03:40:12;;;;;;;3.87;1.90;;;18.70;64.50;;;;;;5072419;28;20465;-69
2022/08/29 03:42:38;;;;;;;2.30;1.67;;;18.60;64.30;;;;;;5053056;28;20473;-69
2022/08/29 03:45:09;;;;;;;2.00;1.83;;;18.60;64.80;;;;;;5069881;28;20465;-69
2022/08/29 03:47:34;;;;;;;2.40;1.60;;;18.60;65.00;;;;;;5065806;28;20467;-70
2022/08/29 03:50:00;;;;;;;2.20;1.73;;;18.50;64.90;;;;;;5053182;28;20830;-70
2022/08/29 03:52:26;;;;;;;2.73;1.93;;;18.50;64.90;;;;;;5066920;28;20936;-69
2022/08/29 03:54:52;;;;;;;2.27;1.57;;;18.50;65.00;;;;;;5063434;28;20743;-69
2022/08/29 03:57:17;;;;;;;1.60;1.50;;;18.50;64.90;;;;;;5070803;28;20238;-69
2022/08/29 03:59:43;;;;;;;2.57;2.00;;;18.50;64.90;;;;;;5081842;27;20469;-68
2022/08/29 04:02:09;;;;;;;2.50;1.80;;;18.50;64.90;;;;;;5082416;28;20223;-69
2022/08/29 04:07:19;;;;;;;3.70;1.80;;;18.40;64.80;;;;;;5069854;27;20218;-70
2022/08/29 04:09:45;;;;;;;2.00;1.73;;;18.40;64.90;;;;;;5068697;28;20991;-69
2022/08/29 04:12:12;;;;;;;3.17;1.90;;;18.40;65.00;;;;;;5070855;28;20225;-69
2022/08/29 04:14:39;;;;;;;2.70;1.70;;;18.30;64.80;;;;;;5066375;28;20223;-69
2022/08/29 04:17:06;;;;;;;1.63;1.53;;;18.30;65.70;;;;;;5045484;28;20478;-68
2022/08/29 04:19:34;;;;;;;3.60;1.73;;;18.20;65.90;;;;;;5064694;28;20469;-70
2022/08/29 04:21:59;;;;;;;2.67;1.40;;;18.10;66.40;;;;;;5071127;28;20556;-68
2022/08/29 04:24:25;;;;;;;8.67;2.00;;;18.00;66.20;;;;;;5051784;28;20563;-68
2022/08/29 04:26:51;;;;;;;7.33;1.47;;;18.10;65.90;;;;;;5065391;28;20980;-70
2022/08/29 04:29:17;;;;;;;2.30;1.60;;;18.10;65.80;;;;;;5065777;28;20322;-68
2022/08/29 04:31:43;;;;;;;4.97;1.73;;;18.10;65.60;;;;;;5066394;28;20694;-68
2022/08/29 04:34:11;;;;;;;5.87;2.00;;;18.10;65.60;;;;;;5049500;28;20515;-68
2022/08/29 04:36:40;;;;;;;2.20;1.50;;;18.10;65.60;;;;;;5067383;28;20477;-70
2022/08/29 04:39:07;;;;;;;2.70;1.77;;;18.10;65.50;;;;;;5064096;28;20453;-69
2022/08/29 04:41:33;;;;;;;2.00;1.80;;;18.10;65.60;;;;;;5060395;28;20544;-70
2022/08/29 04:44:00;;;;;;;6.03;2.10;;;18.10;65.50;;;;;;5083216;27;20973;-69
2022/08/29 04:46:26;;;;;;;2.37;1.33;;;18.10;65.70;;;;;;5072025;28;20456;-69
2022/08/29 04:48:52;;;;;;;3.70;1.60;;;18.10;66.10;;;;;;5051902;28;20968;-68
2022/08/29 04:51:19;;;;;;;1.87;1.60;;;18.10;65.80;;;;;;5067842;28;20458;-68
2022/08/29 04:53:45;;;;;;;4.10;1.73;;;18.00;66.30;;;;;;5057700;27;20460;-69
2022/08/29 04:56:12;;;;;;;1.60;1.50;;;18.00;66.40;;;;;;5071706;28;20464;-69
2022/08/29 04:58:40;;;;;;;2.40;1.40;;;18.00;66.30;;;;;;5065366;28;20464;-70
2022/08/29 05:01:06;;;;;;;4.50;1.70;;;17.90;66.20;;;;;;5066780;28;20456;-69
2022/08/29 05:03:32;;;;;;;2.60;2.27;;;17.90;66.30;;;;;;5065098;28;20453;-69
2022/08/29 05:06:05;;;;;;;3.07;1.60;;;18.00;66.50;;;;;;5064579;28;20547;-69
2022/08/29 05:08:32;;;;;;;2.90;1.90;;;18.00;66.50;;;;;;5064401;28;20480;-69
2022/08/29 05:10:58;;;;;;;2.87;1.70;;;18.00;66.40;;;;;;5069940;28;20445;-69
2022/08/29 05:13:23;;;;;;;4.20;2.10;;;18.00;66.50;;;;;;5061224;28;21095;-69
2022/08/29 05:15:49;;;;;;;2.77;1.80;;;17.90;66.60;;;;;;5064007;28;20474;-70
2022/08/29 05:18:16;;;;;;;1.50;1.40;;;17.90;66.40;;;;;;5084168;28;20215;-68
2022/08/29 05:20:45;;;;;;;2.40;1.70;;;17.90;66.40;;;;;;5065422;28;20235;-68
2022/08/29 05:23:12;;;;;;;4.43;1.47;;;17.90;66.40;;;;;;5066060;28;20485;-70
2022/08/29 05:25:38;;;;;;;2.63;1.63;;;17.90;66.60;;;;;;5045785;28;20469;-69
2022/08/29 05:28:04;;;;;;;2.67;1.80;;;17.90;66.60;;;;;;5055319;28;20496;-70
2022/08/29 05:30:31;;;;;;;7.57;1.80;;;18.00;66.90;;;;;;5004988;28;20474;-69
2022/08/29 05:32:57;;;;;;;3.27;2.10;;;17.90;66.60;;;;;;5047475;28;20446;-68
2022/08/29 05:35:24;;;;;;;1.93;1.70;;;17.90;66.70;;;;;;5064195;28;21035;-69
2022/08/29 05:37:50;;;;;;;3.30;2.20;;;18.00;67.00;;;;;;5058410;28;20522;-69
2022/08/29 05:40:16;;;;;;;3.50;1.97;;;17.90;66.60;;;;;;5063835;28;20457;-69
2022/08/29 05:42:42;;;;;;;2.87;1.73;;;17.90;66.60;;;;;;5034085;28;20989;-69
2022/08/29 05:45:08;;;;;;;3.93;1.87;;;18.00;67.20;;;;;;5047900;28;20219;-69
2022/08/29 05:47:34;;;;;;;2.27;1.90;;;18.00;67.10;;;;;;5058746;28;20226;-69
2022/08/29 05:50:00;;;;;;;1.87;1.40;;;18.00;67.10;;;;;;5064787;28;20454;-68
2022/08/29 05:52:27;;;;;;;4.33;1.77;;;18.00;67.60;;;;;;5062611;28;20807;-70
2022/08/29 05:54:53;;;;;;;3.50;1.90;;;18.00;67.50;;;;;;5045576;28;20249;-69
2022/08/29 05:57:21;;;;;;;2.20;1.80;;;18.00;67.70;;;;;;5069939;28;20531;-69
2022/08/29 05:59:52;;;;;;;4.80;1.70;;;18.00;67.70;;;;;;5040190;28;20450;-70
2022/08/29 06:02:19;;;;;;;2.10;1.50;;;18.00;68.00;;;;;;5075546;28;20527;-70
2022/08/29 06:04:45;;;;;;;3.10;2.00;;;18.10;68.20;;;;;;5063084;28;20511;-68
2022/08/29 06:07:11;;;;;;;2.80;1.50;;;18.10;68.20;;;;;;5064474;28;20461;-68
2022/08/29 06:09:39;;;;;;;1.80;1.60;;;18.10;68.70;;;;;;5062532;28;20504;-69
2022/08/29 06:12:06;;;;;;;3.07;2.03;;;18.10;69.70;;;;;;5066652;28;20462;-69
2022/08/29 06:14:32;;;;;;;3.00;1.63;;;18.20;69.40;;;;;;5062731;28;20465;-70
2022/08/29 06:16:58;;;;;;;3.80;1.77;;;18.20;69.70;;;;;;5062823;28;20466;-68
2022/08/29 06:19:24;;;;;;;3.87;1.77;;;18.20;69.80;;;;;;5063722;28;20535;-70
2022/08/29 06:21:53;;;;;;;3.60;2.03;;;18.20;70.20;;;;;;5059574;28;20239;-68
2022/08/29 06:24:18;;;;;;;3.23;1.70;;;18.30;70.10;;;;;;5058233;28;20996;-70
2022/08/29 06:26:44;;;;;;;3.90;1.93;;;18.30;69.90;;;;;;5038676;28;20465;-70
2022/08/29 06:29:11;;;;;;;4.50;2.10;;;18.30;70.40;;;;;;5072008;28;20628;-67
2022/08/29 06:31:37;;;;;;;2.70;1.80;;;18.40;70.30;;;;;;5062546;28;20231;-68
2022/08/29 06:34:05;;;;;;;2.93;1.83;;;18.40;70.50;;;;;;5058481;28;20450;-69
2022/08/29 06:36:32;;;;;;;3.90;1.97;;;18.40;71.00;;;;;;5056065;28;20750;-69
2022/08/29 06:39:01;;;;;;;2.90;1.90;;;18.50;70.90;;;;;;5063061;28;20573;-69
2022/08/29 06:41:28;;;;;;;2.60;1.30;;;18.50;71.40;;;;;;5063086;28;20535;-69
2022/08/29 06:43:58;;;;;;;2.17;1.97;;;18.60;70.90;;;;;;5045081;28;20453;-69
2022/08/29 06:46:28;;;;;;;1.80;1.50;;;18.60;70.90;;;;;;5062930;28;20832;-69
2022/08/29 06:48:55;;;;;;;2.43;1.50;;;18.70;71.40;;;;;;5051756;28;20226;-69
2022/08/29 06:51:22;;;;;;;2.23;1.80;;;18.70;71.30;;;;;;5055063;28;20464;-68
2022/08/29 06:53:48;;;;;;;2.97;1.90;;;18.80;71.10;;;;;;5060291;28;20856;-70
2022/08/29 06:56:14;;;;;;;3.93;1.90;;;18.80;71.20;;;;;;5063848;28;20591;-70
2022/08/29 06:58:40;;;;;;;5.70;1.90;;;18.90;71.50;;;;;;5060133;28;20457;-69
2022/08/29 07:01:13;;;;;;;4.70;2.30;;;18.90;71.50;;;;;;5058757;28;20446;-70
2022/08/29 07:03:40;;;;;;;2.93;1.50;;;19.00;71.80;;;;;;5059695;28;20454;-70
2022/08/29 07:06:05;;;;;;;2.50;1.93;;;19.00;71.60;;;;;;5060529;28;20540;-69
2022/08/29 07:08:32;;;;;;;2.23;1.83;;;19.10;71.90;;;;;;5056039;28;20544;-70
2022/08/29 07:10:58;;;;;;;2.60;1.70;;;19.20;72.00;;;;;;5063381;28;20215;-69
2022/08/29 07:13:24;;;;;;;5.20;1.90;;;19.20;71.60;;;;;;5056750;28;20451;-69
2022/08/29 07:15:50;;;;;;;5.60;2.70;;;19.30;71.40;;;;;;5056590;28;20877;-69
2022/08/29 07:18:16;;;;;;;2.93;1.60;;;19.30;71.70;;;;;;5042307;28;20215;-69
2022/08/29 07:20:42;;;;;;;1.70;1.60;;;19.40;71.60;;;;;;5060913;28;20534;-68
2022/08/29 07:23:08;;;;;;;2.40;1.77;;;19.50;71.60;;;;;;5063045;28;20493;-68
2022/08/29 07:25:34;;;;;;;2.87;1.90;;;19.60;71.20;;;;;;5059695;28;20223;-68
2022/08/29 07:28:00;;;;;;;2.07;1.70;;;19.60;71.30;;;;;;5063679;28;20468;-70
2022/08/29 07:30:26;;;;;;;1.73;1.63;;;19.60;71.40;;;;;;5062306;28;20281;-69
2022/08/29 07:32:52;;;;;;;2.70;1.60;;;19.70;71.50;;;;;;5060936;28;20316;-68
2022/08/29 07:35:18;;;;;;;2.47;1.90;;;19.80;71.50;;;;;;5069290;28;20553;-69
2022/08/29 07:37:44;;;;;;;4.10;1.93;;;19.80;71.30;;;;;;5059263;28;20282;-68
2022/08/29 07:40:12;;;;;;;3.70;2.60;;;19.90;71.20;;;;;;5052131;28;20565;-68
2022/08/29 07:42:39;;;;;;;16.60;1.70;;;19.90;71.10;;;;;;5051453;28;20461;-70
2022/08/29 07:45:07;;;;;;;3.90;2.03;;;20.00;71.20;;;;;;5061138;28;20485;-70
2022/08/29 07:47:34;;;;;;;1.83;1.67;;;20.00;71.00;;;;;;5058336;28;20454;-71
2022/08/29 07:50:01;;;;;;;3.93;2.07;;;20.10;71.00;;;;;;5063295;28;20457;-68
2022/08/29 07:52:28;;;;;;;1.60;1.50;;;20.20;71.00;;;;;;5059348;28;20454;-70
2022/08/29 07:54:54;;;;;;;2.93;2.00;;;20.30;70.80;;;;;;5056689;28;20497;-68
2022/08/29 07:57:20;;;;;;;5.70;2.93;;;20.30;70.60;;;;;;5066060;28;20516;-69
2022/08/29 07:59:46;;;;;;;4.57;2.00;;;20.40;70.40;;;;;;5063127;28;20453;-70
2022/08/29 08:02:12;;;;;;;2.47;1.70;;;20.50;70.10;;;;;;5063446;28;20225;-69
2022/08/29 08:04:38;;;;;;;1.80;1.67;;;20.60;69.90;;;;;;5038763;28;20223;-69
2022/08/29 08:07:04;;;;;;;4.57;1.80;;;20.60;69.70;;;;;;5064986;28;20226;-70
2022/08/29 08:09:30;;;;;;;3.60;2.00;;;20.60;69.40;;;;;;5066850;28;20223;-70
2022/08/29 08:11:56;;;;;;;6.63;1.90;;;20.60;69.40;;;;;;5068513;28;20484;-69
2022/08/29 08:14:21;;;;;;;6.20;2.30;;;20.70;69.50;;;;;;5065551;28;20297;-71
2022/08/29 08:16:47;;;;;;;1.90;1.77;;;20.70;69.30;;;;;;5065098;28;20565;-68
2022/08/29 08:19:14;;;;;;;2.03;1.50;;;20.80;69.30;;;;;;5063967;28;20226;-69
2022/08/29 08:21:40;;;;;;;7.40;1.90;;;20.80;69.10;;;;;;5077400;28;20224;-68
2022/08/29 08:24:06;;;;;;;3.50;1.93;;;20.90;68.90;;;;;;5059717;28;20454;-70
2022/08/29 08:26:32;;;;;;;5.30;2.23;;;20.90;68.90;;;;;;5061818;28;20459;-70
2022/08/29 08:28:58;;;;;;;2.53;1.70;;;21.00;68.80;;;;;;5063298;28;20461;-68
2022/08/29 08:31:24;;;;;;;2.60;1.87;;;21.00;68.50;;;;;;5047855;28;20248;-69
2022/08/29 08:33:50;;;;;;;3.80;2.10;;;21.10;68.60;;;;;;5039272;28;20461;-69
2022/08/29 08:36:21;;;;;;;5.50;2.10;;;21.20;68.70;;;;;;5065636;28;20220;-70
2022/08/29 08:38:48;;;;;;;3.33;2.07;;;21.30;68.80;;;;;;5077505;28;20461;-69
2022/08/29 08:41:48;;;;;;;4.57;1.70;;;21.30;68.60;;;;;;5061349;28;20462;-69
2022/08/29 08:44:23;;;;;;;2.77;2.00;;;21.40;68.30;;;;;;5056850;28;20962;-68
2022/08/29 08:46:57;;;;;;;2.60;2.10;;;21.40;68.40;;;;;;5061930;28;20453;-68
2022/08/29 08:49:28;;;;;;;2.60;2.30;;;21.30;67.90;;;;;;5059768;28;20454;-70
2022/08/29 08:51:59;;;;;;;5.00;2.07;;;21.40;68.50;;;;;;5059798;28;20469;-69
2022/08/29 08:54:35;;;;;;;2.20;1.80;;;21.50;68.50;;;;;;5064377;28;20492;-69
2022/08/29 08:57:07;;;;;;;2.97;2.30;;;21.60;68.20;;;;;;5046211;28;20457;-69
2022/08/29 08:59:42;;;;;;;2.40;2.00;;;21.70;68.20;;;;;;5061384;28;20457;-69
2022/08/29 09:02:34;;;;;;;5.50;3.10;;;21.80;67.90;;;;;;5062975;28;20472;-70
2022/08/29 09:05:16;;;;;;;2.80;2.37;;;21.80;67.50;;;;;;5065224;28;20456;-68
2022/08/29 09:07:51;;;;;;;7.17;2.40;;;21.90;67.50;;;;;;5056670;28;20444;-69
2022/08/29 09:10:35;;;;;;;4.53;2.10;;;21.90;67.00;;;;;;5064194;28;20543;-70
2022/08/29 09:13:13;;;;;;;3.97;2.30;;;22.10;67.20;;;;;;5061279;28;20479;-70
2022/08/29 09:15:49;;;;;;;5.37;2.00;;;22.20;67.10;;;;;;5055569;28;20468;-69
2022/08/29 09:18:34;;;;;;;2.10;1.90;;;22.30;67.00;;;;;;5063334;28;20466;-69
2022/08/29 09:21:03;;;;;;;3.67;2.00;;;22.40;66.90;;;;;;5056515;28;20449;-67
2022/08/29 09:23:31;;;;;;;2.53;1.80;;;22.60;67.10;;;;;;5053558;28;20462;-69
2022/08/29 09:25:57;;;;;;;4.03;2.30;;;22.60;66.80;;;;;;5064144;28;20453;-69
2022/08/29 09:28:23;;;;;;;5.87;2.10;;;22.70;66.70;;;;;;5077063;28;20454;-70
2022/08/29 09:31:20;;;;;;;6.67;2.30;;;22.80;66.40;;;;;;5076099;28;20440;-68
2022/08/29 09:33:58;;;;;;;3.10;2.30;;;23.00;66.60;;;;;;5057345;28;20733;-67
2022/08/29 09:36:33;;;;;;;2.20;2.00;;;23.00;65.80;;;;;;5067068;28;20460;-69
2022/08/29 09:39:21;;;;;;;2.70;2.00;;;23.00;65.30;;;;;;5066114;28;20449;-69
2022/08/29 09:41:54;;;;;;;3.00;1.90;;;22.90;65.70;;;;;;5055425;28;20980;-69
2022/08/29 09:44:23;;;;;;;2.33;2.00;;;23.00;65.10;;;;;;5067365;28;20460;-70
2022/08/29 09:47:10;;;;;;;2.70;2.40;;;23.10;65.50;;;;;;5062955;28;20495;-69
2022/08/29 09:49:38;;;;;;;3.60;1.80;;;23.20;65.50;;;;;;5057340;28;20458;-69
2022/08/29 09:52:25;;;;;;;2.47;2.07;;;23.30;65.50;;;;;;5071501;28;20453;-69
2022/08/29 09:54:50;;;;;;;2.57;2.37;;;23.50;65.30;;;;;;5058213;28;20465;-70
2022/08/29 09:57:21;;;;;;;5.20;2.70;;;23.50;65.20;;;;;;5061163;28;20910;-69
2022/08/29 10:00:12;;;;;;;3.80;2.30;;;23.60;65.10;;;;;;5053955;28;20238;-69
2022/08/29 10:02:42;;;;;;;2.30;1.93;;;23.70;64.50;;;;;;5056727;28;20464;-69
2022/08/29 10:05:11;;;;;;;2.40;1.50;;;23.90;64.70;;;;;;5055859;28;20527;-69
2022/08/29 10:07:48;;;;;;;2.80;2.10;;;24.10;64.40;;;;;;5053260;28;20461;-69
2022/08/29 10:10:24;;;;;;;4.23;2.10;;;24.20;64.10;;;;;;5054557;28;21003;-70
2022/08/29 10:13:10;;;;;;;3.03;2.13;;;24.20;63.70;;;;;;5057619;28;20461;-69
2022/08/29 10:16:12;;;;;;;2.90;2.07;;;24.00;62.90;;;;;;5042751;28;20466;-69
2022/08/29 10:18:49;;;;;;;3.40;2.40;;;24.00;63.30;;;;;;5034418;28;20460;-70
2022/08/29 10:21:23;;;;;;;7.33;2.30;;;24.10;63.80;;;;;;5063104;28;20457;-69
2022/08/29 10:24:15;;;;;;;3.17;1.97;;;24.20;63.90;;;;;;5062031;28;20466;-68
2022/08/29 10:27:01;;;;;;;4.10;2.57;;;24.40;64.10;;;;;;5054266;27;20843;-68
2022/08/29 10:29:49;;;;;;;6.33;2.53;;;24.50;63.80;;;;;;5062327;28;20478;-69
2022/08/29 10:32:49;;;;;;;2.57;2.37;;;24.60;62.80;;;;;;5056672;28;20829;-69
2022/08/29 10:35:21;;;;;;;5.43;2.53;;;24.80;62.80;;;;;;5058081;28;20496;-70
2022/08/29 10:37:58;;;;;;;8.40;2.50;;;25.00;62.60;;;;;;5036492;28;20476;-68
2022/08/29 10:40:29;;;;;;;3.60;2.03;;;25.20;61.80;;;;;;5053417;28;20451;-69
2022/08/29 10:43:28;;;;;;;10.30;2.23;;;25.20;61.70;;;;;;5058461;28;20469;-69
2022/08/29 10:46:03;;;;;;;3.60;2.63;;;25.20;61.30;;;;;;5054696;28;21190;-68
2022/08/29 10:48:36;;;;;;;4.13;2.27;;;25.00;60.90;;;;;;5058251;28;20458;-72
2022/08/29 10:51:09;;;;;;;2.17;1.93;;;25.10;61.30;;;;;;5075582;28;20457;-68
2022/08/29 10:53:41;;;;;;;4.10;2.60;;;25.20;61.50;;;;;;5061588;28;20464;-70
2022/08/29 10:56:21;;;;;;;7.03;2.93;;;25.30;61.30;;;;;;5062167;28;20454;-69
2022/08/29 10:59:11;;;;;;;5.60;2.30;;;25.60;60.80;;;;;;5073221;28;20463;-70
2022/08/29 11:01:56;;;;;;;3.50;2.40;;;25.70;60.30;;;;;;5047080;28;20470;-69
2022/08/29 11:04:31;;;;;;;4.13;2.33;;;25.70;59.80;;;;;;5055305;28;20554;-69
2022/08/29 11:07:02;;;;;;;3.00;2.30;;;25.80;59.90;;;;;;5061431;28;20459;-70
2022/08/29 11:09:34;;;;;;;3.30;2.50;;;25.90;59.90;;;;;;5054809;28;20538;-70
2022/08/29 11:12:08;;;;;;;6.70;2.13;;;26.00;59.70;;;;;;5058691;28;20447;-70
2022/08/29 11:14:39;;;;;;;4.20;2.30;;;25.80;59.20;;;;;;5059467;28;20524;-69
2022/08/29 11:17:09;;;;;;;5.03;2.30;;;25.90;59.60;;;;;;5051760;28;20466;-68
2022/08/29 11:20:01;;;;;;;6.60;2.83;;;26.00;59.50;;;;;;5053643;28;20451;-70
2022/08/29 11:22:38;;;;;;;2.93;2.40;;;26.00;59.30;;;;;;5076897;28;21009;-68
2022/08/29 11:25:12;;;;;;;4.70;2.67;;;26.00;58.90;;;;;;5062478;28;20460;-70
2022/08/29 11:27:47;;;;;;;3.20;2.10;;;25.80;58.50;;;;;;5078755;28;20461;-70
2022/08/29 11:30:28;;;;;;;2.60;2.37;;;26.00;59.40;;;;;;5072821;28;20457;-69
2022/08/29 11:33:29;;;;;;;3.67;2.33;;;26.20;59.00;;;;;;5052701;28;20466;-70
2022/08/29 11:36:24;;;;;;;4.97;3.23;;;26.10;58.60;;;;;;5065739;28;20458;-69
2022/08/29 11:39:08;;;;;;;2.63;2.43;;;26.20;58.20;;;;;;5056756;27;20452;-69
2022/08/29 11:41:55;;;;;;;3.37;2.27;;;26.20;58.40;;;;;;5064741;28;20510;-70
2022/08/29 11:44:39;;;;;;;2.77;1.80;;;26.30;58.30;;;;;;5066554;28;20457;-69
2022/08/29 11:47:56;;;;;;;4.97;2.43;;;26.40;58.10;;;;;;5059875;28;20467;-69
2022/08/29 11:50:34;;;;;;;2.60;2.40;;;26.40;58.40;;;;;;5066090;28;20481;-68
2022/08/29 11:53:06;;;;;;;1.97;1.77;;;26.40;57.50;;;;;;5046901;28;20458;-70
2022/08/29 11:55:44;;;;;;;3.90;2.57;;;26.50;57.70;;;;;;5062726;28;20462;-70
2022/08/29 11:58:13;;;;;;;4.93;2.43;;;26.50;57.60;;;;;;5063557;28;20454;-71
2022/08/29 12:00:53;;;;;;;3.03;2.33;;;26.70;58.00;;;;;;5064952;28;20468;-70
2022/08/29 12:03:45;;;;;;;3.20;2.90;;;26.70;57.60;;;;;;5065076;28;20472;-70
2022/08/29 12:06:46;;;;;;;5.10;2.03;;;26.70;57.40;;;;;;5056142;28;20523;-69
2022/08/29 12:09:12;;;;;;;5.87;2.43;;;26.80;57.40;;;;;;5053827;28;20518;-68
2022/08/29 12:12:03;;;;;;;4.87;2.20;;;27.00;57.40;;;;;;5068929;28;20471;-70
2022/08/29 12:14:35;;;;;;;4.10;2.40;;;27.10;57.20;;;;;;5079266;28;20210;-69
2022/08/29 12:17:04;;;;;;;4.83;2.50;;;27.00;56.90;;;;;;5061587;28;20481;-69
2022/08/29 12:19:46;;;;;;;5.60;2.33;;;27.00;57.00;;;;;;5061203;28;20981;-70
2022/08/29 12:22:46;;;;;;;3.03;2.60;;;27.00;57.00;;;;;;5069480;28;20478;-70
2022/08/29 12:25:26;;;;;;;2.70;2.50;;;27.10;57.10;;;;;;5059607;28;21004;-70
2022/08/29 12:28:29;;;;;;;12.83;3.60;;;27.20;56.50;;;;;;5055390;28;20462;-68
2022/08/29 12:30:58;;;;;;;2.60;2.07;;;27.30;56.90;;;;;;5040671;28;20455;-69
2022/08/29 12:33:43;;;;;;;3.22;2.33;;;27.50;57.30;;;;;;5066453;28;20228;-70
2022/08/29 12:36:55;;;;;;;2.40;2.20;;;27.50;56.70;;;;;;5060423;28;20247;-69
2022/08/29 12:39:57;;;;;;;3.20;2.50;;;27.50;56.40;;;;;;5026413;28;20456;-70
2022/08/29 12:42:28;;;;;;;2.50;2.30;;;27.50;56.70;;;;;;5018751;28;21012;-70
2022/08/29 12:45:10;;;;;;;3.10;2.30;;;27.60;56.20;;;;;;5050111;28;20220;-70
2022/08/29 12:47:44;;;;;;;4.93;2.13;;;27.60;56.10;;;;;;5062229;28;20230;-70
2022/08/29 12:50:21;;;;;;;3.90;2.50;;;27.50;55.90;;;;;;5058777;28;20231;-70
2022/08/29 12:53:06;;;;;;;8.17;2.37;;;27.60;56.20;;;;;;5053819;28;20557;-70
2022/08/29 12:55:38;;;;;;;2.53;2.33;;;27.90;56.00;;;;;;5063271;28;20467;-70
2022/08/29 12:58:05;;;;;;;2.42;2.22;;;28.10;56.00;;;;;;5059973;28;20230;-70
2022/08/29 13:00:32;;;;;;;2.97;2.00;;;28.30;55.80;;;;;;5075631;28;20237;-70
2022/08/29 13:03:19;;;;;;;3.25;2.70;;;28.30;56.00;;;;;;5061748;28;20238;-70
2022/08/29 13:05:47;;;;;;;2.88;2.38;;;28.20;55.80;;;;;;5078401;27;20311;-70
2022/08/29 13:08:28;;;;;;;2.87;2.40;;;27.90;55.70;;;;;;5046732;28;20304;-69